Time;durP1;ratioP1;P1;durP2;ratioP2;P2;SDS_P1;SDS_P2;PMS_P1;PMS_P2;Temp;Humidity;BMP_temperature;BMP_pressure;BME280_temperature;BME280_humidity;BME280_pressure;Samples;Min_cycle;Max_cycle;Signal;HPM_P1;HPM_P2
2022/08/08 00:01:37;;;;;;;1999.90;999.90;;;14.40;99.90;;;;;;4884037;29;20045;-74
2022/08/08 00:04:10;;;;;;;1999.90;999.90;;;14.50;99.90;;;;;;4907860;29;20028;-73
2022/08/08 00:07:05;;;;;;;1999.90;999.90;;;14.40;99.90;;;;;;4909915;29;20077;-74
2022/08/08 00:09:49;;;;;;;1999.90;999.90;;;14.40;99.90;;;;;;4885158;29;20052;-74
2022/08/08 00:12:22;;;;;;;1999.90;999.90;;;14.30;99.90;;;;;;4908133;29;20031;-74
2022/08/08 00:14:56;;;;;;;1999.90;999.90;;;14.30;99.90;;;;;;4892819;29;20455;-74
2022/08/08 00:17:25;;;;;;;1999.90;999.90;;;14.20;99.90;;;;;;4891227;29;20083;-74
2022/08/08 00:20:00;;;;;;;1999.90;999.90;;;14.30;99.90;;;;;;4875741;29;20033;-74
2022/08/08 00:22:49;;;;;;;1999.90;999.90;;;14.30;99.90;;;;;;4901950;29;20028;-74
2022/08/08 00:25:35;;;;;;;1999.90;999.90;;;14.30;99.90;;;;;;4895008;29;20032;-74
2022/08/08 00:28:05;;;;;;;1999.90;999.90;;;14.30;99.90;;;;;;4910041;29;20035;-74
2022/08/08 00:30:38;;;;;;;1999.90;999.90;;;14.30;99.90;;;;;;4879962;29;20543;-77
2022/08/08 00:33:20;;;;;;;1999.90;999.90;;;14.30;99.90;;;;;;4913266;29;20022;-73
2022/08/08 00:35:53;;;;;;;1999.90;999.90;;;14.30;99.90;;;;;;4912284;29;20220;-74
2022/08/08 00:38:45;;;;;;;1999.90;999.90;;;14.30;99.90;;;;;;4912256;29;20026;-75
2022/08/08 00:41:42;;;;;;;1999.90;999.90;;;14.30;99.90;;;;;;4906929;29;20044;-74
2022/08/08 00:44:47;;;;;;;1999.90;999.90;;;14.30;99.90;;;;;;4894423;29;20059;-74
2022/08/08 00:47:50;;;;;;;1999.90;999.90;;;14.30;99.90;;;;;;4911408;29;20043;-74
2022/08/08 00:50:28;;;;;;;1999.90;999.90;;;14.20;99.90;;;;;;4910319;29;20103;-75
2022/08/08 00:53:07;;;;;;;1999.90;999.90;;;14.20;99.90;;;;;;4907689;29;20035;-73
2022/08/08 00:55:40;;;;;;;1999.90;999.90;;;14.10;99.90;;;;;;4910987;29;20063;-73
2022/08/08 00:58:26;;;;;;;1999.90;999.90;;;14.00;99.90;;;;;;4908422;29;20695;-74
2022/08/08 01:00:57;;;;;;;1999.90;999.90;;;13.90;99.90;;;;;;4910711;29;20032;-73
2022/08/08 01:03:37;;;;;;;1999.90;999.90;;;13.90;99.90;;;;;;4912336;29;20076;-73
2022/08/08 01:06:27;;;;;;;1999.90;999.90;;;13.90;99.90;;;;;;4892218;29;20511;-74
2022/08/08 01:09:11;;;;;;;;;;;13.90;99.90;;;;;;4913033;29;20809;-74
2022/08/08 01:11:49;;;;;;;1999.90;999.90;;;13.90;99.90;;;;;;4902796;29;20005;-73
2022/08/08 01:14:51;;;;;;;1999.90;999.90;;;13.90;99.90;;;;;;4912157;29;20043;-74
2022/08/08 01:17:20;;;;;;;1999.90;999.90;;;13.80;99.90;;;;;;4911187;29;20020;-72
2022/08/08 01:19:48;;;;;;;1999.90;999.90;;;13.90;99.90;;;;;;4911504;29;20028;-74
2022/08/08 01:22:38;;;;;;;1999.90;999.90;;;13.90;99.90;;;;;;4912341;29;20099;-74
2022/08/08 01:25:25;;;;;;;1999.90;999.90;;;13.70;99.90;;;;;;4910440;29;20111;-73
2022/08/08 01:28:05;;;;;;;1999.90;999.90;;;13.80;99.90;;;;;;4911162;29;20112;-75
2022/08/08 01:30:55;;;;;;;1999.90;999.90;;;13.80;99.90;;;;;;4891553;29;20122;-74
2022/08/08 01:33:39;;;;;;;1999.90;999.90;;;13.80;99.90;;;;;;4911604;29;20056;-73
2022/08/08 01:36:25;;;;;;;1999.90;999.90;;;13.80;99.90;;;;;;4894891;29;20484;-73
2022/08/08 01:39:20;;;;;;;1999.90;999.90;;;13.80;99.90;;;;;;4910654;29;20028;-73
2022/08/08 01:41:58;;;;;;;1999.90;999.90;;;13.70;99.90;;;;;;4910950;29;20027;-74
2022/08/08 01:44:39;;;;;;;1999.90;999.90;;;13.60;99.90;;;;;;4911563;29;20043;-74
2022/08/08 01:47:42;;;;;;;1999.90;999.90;;;13.50;99.90;;;;;;4906842;29;20032;-74
2022/08/08 01:50:39;;;;;;;1999.90;999.90;;;13.40;99.90;;;;;;4907611;29;20522;-74
2022/08/08 01:53:37;;;;;;;1999.90;999.90;;;13.50;99.90;;;;;;4904309;29;20043;-74
2022/08/08 01:56:18;;;;;;;1999.90;999.90;;;13.50;99.90;;;;;;4908394;29;20071;-74
2022/08/08 01:59:04;;;;;;;1999.90;999.90;;;13.40;99.90;;;;;;4910475;29;20522;-74
2022/08/08 02:01:42;;;;;;;1999.90;999.90;;;13.30;99.90;;;;;;4905528;29;20032;-74
2022/08/08 02:04:21;;;;;;;1999.90;999.90;;;13.30;99.90;;;;;;4911235;29;20040;-73
2022/08/08 02:07:15;;;;;;;1999.90;999.90;;;13.30;99.90;;;;;;4910183;29;20777;-73
2022/08/08 02:09:55;;;;;;;1999.90;999.90;;;13.30;99.90;;;;;;4911159;29;20032;-74
2022/08/08 02:12:36;;;;;;;1999.90;999.90;;;13.40;99.90;;;;;;4910317;29;20039;-74
2022/08/08 02:15:08;;;;;;;1999.90;999.90;;;13.30;99.90;;;;;;4904018;29;20028;-74
2022/08/08 02:17:39;;;;;;;1999.90;999.90;;;13.30;99.90;;;;;;4911526;29;20028;-73
2022/08/08 02:20:31;;;;;;;1999.90;999.90;;;13.20;99.90;;;;;;4910053;29;20028;-73
2022/08/08 02:23:09;;;;;;;1999.90;999.90;;;13.30;99.90;;;;;;4890631;29;20119;-74
2022/08/08 02:25:45;;;;;;;1999.90;999.90;;;13.20;99.90;;;;;;4905669;29;20463;-74
2022/08/08 02:28:34;;;;;;;1999.90;999.90;;;13.20;99.90;;;;;;4909710;29;20510;-74
2022/08/08 02:31:30;;;;;;;1999.90;999.90;;;13.30;99.90;;;;;;4909680;29;20044;-74
2022/08/08 02:34:34;;;;;;;1999.90;999.90;;;13.30;99.90;;;;;;4893953;29;20115;-74
2022/08/08 02:37:42;;;;;;;1999.90;999.90;;;13.40;99.90;;;;;;4868727;29;20123;-74
2022/08/08 02:40:18;;;;;;;1999.90;999.90;;;13.30;99.90;;;;;;4892889;29;20032;-74
2022/08/08 02:43:03;;;;;;;1999.90;999.90;;;13.30;99.90;;;;;;4889898;29;20040;-74
2022/08/08 02:45:56;;;;;;;1999.90;999.90;;;13.30;99.90;;;;;;4909872;29;20052;-73
2022/08/08 02:48:52;;;;;;;1999.90;999.90;;;13.20;99.90;;;;;;4907241;29;20107;-74
2022/08/08 02:51:27;;;;;;;1999.90;999.90;;;13.10;99.90;;;;;;4909175;29;20028;-74
2022/08/08 02:54:12;;;;;;;1999.90;999.90;;;13.10;99.90;;;;;;4910273;29;20028;-74
2022/08/08 02:57:20;;;;;;;1999.90;999.90;;;13.10;99.90;;;;;;4908422;29;20075;-74
2022/08/08 03:00:09;;;;;;;1999.90;999.90;;;13.00;99.90;;;;;;4875987;29;20043;-73
2022/08/08 03:03:21;;;;;;;1999.90;999.90;;;13.00;99.90;;;;;;4909217;29;20064;-74
2022/08/08 03:06:05;;;;;;;1999.90;999.90;;;13.10;99.90;;;;;;4908229;29;20555;-74
2022/08/08 03:08:57;;;;;;;1999.90;999.90;;;13.00;99.90;;;;;;4893309;29;20031;-74
2022/08/08 03:11:59;;;;;;;1999.90;999.90;;;12.90;99.90;;;;;;4883256;29;20043;-74
2022/08/08 03:14:37;;;;;;;1999.90;999.90;;;13.00;99.90;;;;;;4904160;29;20028;-74
2022/08/08 03:17:12;;;;;;;1999.90;999.90;;;12.90;99.90;;;;;;4906152;29;20502;-74
2022/08/08 03:20:00;;;;;;;1999.90;999.90;;;12.90;99.90;;;;;;4902713;29;20118;-74
2022/08/08 03:22:26;;;;;;;1999.90;999.90;;;12.90;99.90;;;;;;4904990;29;20527;-74
2022/08/08 03:24:52;;;;;;;1999.90;999.90;;;12.90;99.90;;;;;;4909031;29;20035;-74
2022/08/08 03:27:23;;;;;;;1999.90;999.90;;;12.90;99.90;;;;;;4910924;29;20051;-74
2022/08/08 03:29:55;;;;;;;1999.90;999.90;;;12.80;99.90;;;;;;4892818;29;20033;-74
2022/08/08 03:35:07;;;;;;;1999.90;999.90;;;12.80;99.90;;;;;;4910077;29;20045;-74
2022/08/08 03:37:36;;;;;;;1999.90;999.90;;;12.80;99.90;;;;;;4908726;29;20054;-74
2022/08/08 03:40:03;;;;;;;1999.90;999.90;;;12.90;99.90;;;;;;4891456;29;20028;-74
2022/08/08 03:42:29;;;;;;;1999.90;999.90;;;12.90;99.90;;;;;;4890230;29;20024;-74
2022/08/08 03:44:55;;;;;;;1999.90;999.90;;;12.90;99.90;;;;;;4911051;29;20052;-73
2022/08/08 03:47:21;;;;;;;1999.90;999.90;;;12.90;99.90;;;;;;4910140;29;20032;-74
2022/08/08 03:49:50;;;;;;;1999.90;999.90;;;12.90;99.90;;;;;;4910655;29;20025;-74
2022/08/08 03:52:16;;;;;;;1999.90;999.90;;;12.90;99.90;;;;;;4876540;29;20048;-74
2022/08/08 03:54:44;;;;;;;1999.90;999.90;;;12.90;99.90;;;;;;4892646;29;20036;-73
2022/08/08 03:57:14;;;;;;;1999.90;999.90;;;12.90;99.90;;;;;;4910442;29;20123;-74
2022/08/08 03:59:40;;;;;;;1999.90;999.90;;;12.90;99.90;;;;;;4893804;29;20141;-74
2022/08/08 04:02:18;;;;;;;1999.90;999.90;;;12.90;99.90;;;;;;4887350;29;20128;-72
2022/08/08 04:04:45;;;;;;;1999.90;999.90;;;12.90;99.90;;;;;;4904545;29;20115;-73
2022/08/08 04:07:11;;;;;;;1999.90;999.90;;;12.90;99.90;;;;;;4908799;29;20066;-73
2022/08/08 04:09:37;;;;;;;1999.90;999.90;;;12.90;99.90;;;;;;4908751;29;20068;-74
2022/08/08 04:12:04;;;;;;;1999.90;999.90;;;12.90;99.90;;;;;;4892126;29;20036;-73
2022/08/08 04:14:29;;;;;;;1999.90;999.90;;;12.90;99.90;;;;;;4909549;29;20059;-74
2022/08/08 04:16:55;;;;;;;1999.90;999.90;;;12.90;99.90;;;;;;4907714;29;20472;-74
2022/08/08 04:19:21;;;;;;;1999.90;999.90;;;12.90;99.90;;;;;;4877003;29;20047;-74
2022/08/08 04:21:47;;;;;;;1999.90;999.90;;;12.90;99.90;;;;;;4908805;29;20479;-73
2022/08/08 04:24:12;;;;;;;1999.90;999.90;;;12.90;99.90;;;;;;4892741;29;20284;-74
2022/08/08 04:26:38;;;;;;;1999.90;999.90;;;12.90;99.90;;;;;;4877107;29;20047;-74
2022/08/08 04:29:04;;;;;;;1999.90;999.90;;;12.90;99.90;;;;;;4909321;29;20387;-74
2022/08/08 04:31:29;;;;;;;1999.90;999.90;;;12.90;99.90;;;;;;4908711;29;20535;-74
2022/08/08 04:33:55;;;;;;;1999.90;999.90;;;13.00;99.90;;;;;;4907773;29;20063;-75
2022/08/08 04:36:21;;;;;;;1999.90;999.90;;;13.00;99.90;;;;;;4907880;29;20677;-74
2022/08/08 04:38:46;;;;;;;1999.90;999.90;;;13.10;99.90;;;;;;4891091;29;20123;-74
2022/08/08 04:41:12;;;;;;;1999.90;999.90;;;13.10;99.90;;;;;;4908995;29;20546;-73
2022/08/08 04:43:38;;;;;;;1999.90;999.90;;;13.10;99.90;;;;;;4909106;29;20028;-74
2022/08/08 04:46:04;;;;;;;1999.90;999.90;;;13.10;99.90;;;;;;4908481;29;20538;-74
2022/08/08 04:48:30;;;;;;;1999.90;999.90;;;13.20;99.90;;;;;;4877029;29;20065;-74
2022/08/08 04:50:56;;;;;;;1999.90;999.90;;;13.30;99.90;;;;;;4889118;29;20389;-74
2022/08/08 04:53:21;;;;;;;1999.90;999.90;;;13.30;99.90;;;;;;4908669;29;20044;-73
2022/08/08 04:55:47;;;;;;;1999.90;999.90;;;13.40;99.90;;;;;;4908482;29;20555;-73
2022/08/08 04:58:14;;;;;;;1999.90;999.90;;;13.40;99.90;;;;;;4865079;29;20036;-80
2022/08/08 05:00:42;;;;;;;1999.90;999.90;;;13.60;99.90;;;;;;4907531;29;20036;-74
2022/08/08 05:03:08;;;;;;;1999.90;999.90;;;13.50;99.90;;;;;;4908314;29;20028;-73
2022/08/08 05:05:34;;;;;;;1999.90;999.90;;;13.60;99.90;;;;;;4874067;29;20095;-74
2022/08/08 05:07:59;;;;;;;1999.90;999.90;;;13.60;99.90;;;;;;4893823;29;20048;-73
2022/08/08 05:10:28;;;;;;;1999.90;999.90;;;13.70;99.90;;;;;;4890753;29;20068;-75
2022/08/08 05:12:57;;;;;;;1999.90;999.90;;;13.80;99.90;;;;;;4879213;29;20492;-73
2022/08/08 05:15:23;;;;;;;1999.90;999.90;;;13.80;99.90;;;;;;4905016;29;20071;-73
2022/08/08 05:17:49;;;;;;;1999.90;999.90;;;13.80;99.90;;;;;;4907235;29;20063;-71
2022/08/08 05:20:14;;;;;;;1999.90;999.90;;;13.90;99.90;;;;;;4888668;29;20055;-71
2022/08/08 05:22:40;;;;;;;1999.90;999.90;;;13.90;99.90;;;;;;4909934;29;20072;-76
2022/08/08 05:25:06;;;;;;;1999.90;999.90;;;13.90;99.90;;;;;;4876284;29;20151;-73
2022/08/08 05:27:32;;;;;;;1999.90;999.90;;;14.10;99.90;;;;;;4876518;29;20046;-74
2022/08/08 05:29:57;;;;;;;1999.90;999.90;;;14.10;99.90;;;;;;4893697;29;20028;-74
2022/08/08 05:32:23;;;;;;;1999.90;999.90;;;14.10;99.90;;;;;;4877578;29;20048;-74
2022/08/08 05:34:50;;;;;;;1999.90;999.90;;;14.10;99.90;;;;;;4907985;29;20734;-74
2022/08/08 05:37:18;;;;;;;1999.90;999.90;;;14.20;99.90;;;;;;4909324;29;20060;-73
2022/08/08 05:39:51;;;;;;;1999.90;999.90;;;14.20;99.90;;;;;;4894403;29;20025;-74
2022/08/08 05:42:17;;;;;;;1999.90;999.90;;;14.20;99.90;;;;;;4907879;29;20060;-73
2022/08/08 05:44:49;;;;;;;1999.90;999.90;;;14.20;99.90;;;;;;4909458;29;20090;-76
2022/08/08 05:47:16;;;;;;;1999.90;999.90;;;14.40;99.90;;;;;;4909755;29;20040;-73
2022/08/08 05:49:43;;;;;;;1999.90;999.90;;;14.40;99.90;;;;;;4891738;29;20058;-73
2022/08/08 05:52:09;;;;;;;1999.90;999.90;;;14.40;99.90;;;;;;4892734;29;20047;-74
2022/08/08 05:54:35;;;;;;;1999.90;999.90;;;14.50;99.90;;;;;;4892076;29;20036;-77
2022/08/08 05:57:01;;;;;;;1999.90;999.90;;;14.60;99.90;;;;;;4894786;29;20436;-74
2022/08/08 05:59:32;;;;;;;1999.90;999.90;;;14.60;99.90;;;;;;4908649;29;20044;-73
2022/08/08 06:01:57;;;;;;;1999.90;999.90;;;14.60;99.90;;;;;;4873877;29;20091;-73
2022/08/08 06:04:26;;;;;;;1999.90;999.90;;;14.70;99.90;;;;;;4893203;29;20028;-74
2022/08/08 06:06:54;;;;;;;1999.90;999.90;;;14.80;99.90;;;;;;4876129;29;20495;-76
2022/08/08 06:09:31;;;;;;;1999.90;999.90;;;14.80;99.90;;;;;;4894206;29;20677;-76
2022/08/08 06:12:02;;;;;;;1999.90;999.90;;;14.80;99.90;;;;;;4878784;29;20587;-75
2022/08/08 06:14:29;;;;;;;1999.90;999.90;;;14.80;99.90;;;;;;4889977;29;20530;-76
2022/08/08 06:17:03;;;;;;;1999.90;999.90;;;14.90;99.90;;;;;;4907406;29;20036;-76
2022/08/08 06:19:29;;;;;;;1999.90;999.90;;;15.10;99.90;;;;;;4877293;29;20584;-75
2022/08/08 06:21:55;;;;;;;1999.90;999.90;;;15.00;99.90;;;;;;4875966;29;20036;-76
2022/08/08 06:24:21;;;;;;;1999.90;999.90;;;15.20;99.90;;;;;;4907664;29;20040;-76
2022/08/08 06:27:02;;;;;;;1999.90;999.90;;;15.10;99.90;;;;;;4883232;29;20036;-76
2022/08/08 06:29:34;;;;;;;1999.90;999.90;;;15.20;99.90;;;;;;4894102;29;20028;-76
2022/08/08 06:32:03;;;;;;;1999.90;999.90;;;15.20;99.90;;;;;;4907078;29;20183;-75
2022/08/08 06:34:35;;;;;;;1999.90;999.90;;;15.30;99.90;;;;;;4892754;29;20059;-76
2022/08/08 06:37:02;;;;;;;1999.90;999.90;;;15.30;99.90;;;;;;4900129;29;20647;-76
2022/08/08 06:39:29;;;;;;;1999.90;999.90;;;15.40;99.90;;;;;;4907726;29;20059;-75
2022/08/08 06:41:57;;;;;;;1999.90;999.90;;;15.50;99.90;;;;;;4875859;29;20856;-75
2022/08/08 06:44:24;;;;;;;1999.90;999.90;;;15.70;99.90;;;;;;4891573;29;20107;-75
2022/08/08 06:46:51;;;;;;;1999.90;999.90;;;15.80;99.90;;;;;;4908102;29;20075;-76
2022/08/08 06:49:17;;;;;;;1999.90;999.90;;;15.90;99.90;;;;;;4907482;29;20123;-76
2022/08/08 06:51:43;;;;;;;1999.90;999.90;;;15.90;99.90;;;;;;4896778;29;20035;-76
2022/08/08 06:54:09;;;;;;;1999.90;999.90;;;16.00;99.90;;;;;;4907240;29;20032;-75
2022/08/08 06:56:35;;;;;;;1999.90;999.90;;;16.00;99.90;;;;;;4893328;29;20427;-76
2022/08/08 06:59:02;;;;;;;1999.90;999.90;;;16.20;99.90;;;;;;4889922;29;20025;-75
2022/08/08 07:01:33;;;;;;;1999.90;999.90;;;16.20;99.90;;;;;;4890669;29;20638;-76
2022/08/08 07:04:27;;;;;;;1999.90;999.90;;;16.40;99.90;;;;;;4907160;29;20052;-79
2022/08/08 07:06:59;;;;;;;1999.90;999.90;;;16.40;99.90;;;;;;4889087;29;20032;-74
2022/08/08 07:09:32;;;;;;;1999.90;999.90;;;16.60;99.50;;;;;;4903110;29;20067;-74
2022/08/08 07:11:59;;;;;;;1999.90;999.90;;;16.70;98.10;;;;;;4891695;29;20231;-74
2022/08/08 07:14:41;;;;;;;1999.90;999.90;;;16.90;98.30;;;;;;4890686;29;20038;-74
2022/08/08 07:17:15;;;;;;;1999.90;999.90;;;17.10;98.80;;;;;;4903222;29;20039;-74
2022/08/08 07:20:18;;;;;;;1999.90;999.90;;;17.10;97.00;;;;;;4906284;29;20034;-75
2022/08/08 07:23:18;;;;;;;1999.90;999.90;;;17.10;96.30;;;;;;4838847;29;20038;-75
2022/08/08 07:25:45;;;;;;;1029.70;929.25;;;17.20;98.90;;;;;;4908426;29;20025;-74
2022/08/08 07:28:22;;;;;;;1999.90;999.90;;;17.30;96.20;;;;;;4893679;29;20511;-75
2022/08/08 07:30:48;;;;;;;1246.82;924.85;;;17.50;96.60;;;;;;4894282;29;20043;-74
2022/08/08 07:33:14;;;;;;;1999.90;999.90;;;17.70;95.70;;;;;;4888939;29;20736;-74
2022/08/08 07:35:41;;;;;;;1999.90;999.90;;;17.80;97.50;;;;;;4860156;29;20131;-81
2022/08/08 07:38:09;;;;;;;1999.90;999.90;;;17.90;95.70;;;;;;4906806;29;20051;-78
2022/08/08 07:40:36;;;;;;;1999.90;999.90;;;18.20;94.20;;;;;;4907510;29;20036;-79
2022/08/08 07:43:03;;;;;;;1999.90;999.90;;;18.30;93.20;;;;;;4889141;29;20103;-77
2022/08/08 07:45:29;;;;;;;1229.18;999.90;;;18.30;94.10;;;;;;4903234;29;20059;-77
2022/08/08 07:47:57;;;;;;;1342.05;995.20;;;18.30;92.50;;;;;;4889422;29;20064;-77
2022/08/08 07:50:23;;;;;;;1354.18;999.90;;;18.40;92.00;;;;;;4909878;29;20135;-78
2022/08/08 07:52:59;;;;;;;1999.90;999.90;;;18.60;93.00;;;;;;4908173;29;20036;-78
2022/08/08 07:55:27;;;;;;;1399.65;978.53;;;18.70;91.40;;;;;;4891828;29;20123;-78
2022/08/08 07:57:59;;;;;;;1118.70;995.97;;;18.80;92.00;;;;;;4909742;29;20050;-78
2022/08/08 08:00:31;;;;;;;1151.47;999.10;;;18.80;90.10;;;;;;4905643;29;20496;-78
2022/08/08 08:03:09;;;;;;;1568.85;999.72;;;19.00;90.10;;;;;;4905280;29;20156;-78
2022/08/08 08:05:42;;;;;;;1084.72;969.20;;;19.20;90.60;;;;;;4903704;29;20028;-78
2022/08/08 08:08:19;;;;;;;1274.07;999.90;;;19.30;87.00;;;;;;4888254;29;20133;-79
2022/08/08 08:10:54;;;;;;;1304.82;817.65;;;19.60;85.20;;;;;;4907495;29;20024;-78
2022/08/08 08:13:24;;;;;;;1043.22;936.30;;;19.90;86.60;;;;;;4909878;29;20047;-78
2022/08/08 08:16:00;;;;;;;;;;;20.30;80.80;;;;;;4903769;29;20064;-80
2022/08/08 08:18:38;;;;;;;666.67;628.55;;;20.40;79.10;;;;;;4908470;29;20026;-79
2022/08/08 08:21:05;;;;;;;989.42;908.13;;;20.70;72.20;;;;;;4909256;29;20132;-79
2022/08/08 08:23:31;;;;;;;1008.30;913.25;;;20.90;75.00;;;;;;4892975;29;20024;-80
2022/08/08 08:25:57;;;;;;;870.50;806.38;;;21.10;73.50;;;;;;4889491;29;20036;-79
2022/08/08 08:28:24;;;;;;;861.88;796.22;;;21.10;71.10;;;;;;4892159;29;20029;-78
2022/08/08 08:30:50;;;;;;;956.22;882.13;;;21.10;69.20;;;;;;4891695;29;20046;-79
2022/08/08 08:33:15;;;;;;;957.33;870.88;;;21.10;73.40;;;;;;4909165;29;20028;-81
2022/08/08 08:35:41;;;;;;;792.05;742.72;;;21.10;68.50;;;;;;4891111;29;20056;-80
2022/08/08 08:38:07;;;;;;;813.08;749.83;;;21.20;66.30;;;;;;4892233;29;20109;-79
2022/08/08 08:40:33;;;;;;;912.63;842.30;;;21.10;65.60;;;;;;4911346;29;20335;-78
2022/08/08 08:42:59;;;;;;;743.50;698.95;;;21.00;64.20;;;;;;4910015;29;20028;-78
2022/08/08 08:45:25;;;;;;;955.70;882.63;;;21.30;66.10;;;;;;4893073;29;20056;-79
2022/08/08 08:47:52;;;;;;;944.78;864.25;;;21.70;68.00;;;;;;4873909;29;20029;-77
2022/08/08 08:50:18;;;;;;;763.45;712.30;;;21.70;63.30;;;;;;4892842;29;20115;-76
2022/08/08 08:52:45;;;;;;;747.25;698.60;;;21.60;62.50;;;;;;4894270;29;20032;-77
2022/08/08 08:55:14;;;;;;;890.70;818.90;;;21.50;62.30;;;;;;4894150;29;20119;-78
2022/08/08 08:57:42;;;;;;;974.38;894.42;;;21.50;65.10;;;;;;4893644;29;20164;-79
2022/08/08 09:00:09;;;;;;;907.42;838.30;;;21.90;68.00;;;;;;4889791;29;20124;-78
2022/08/08 09:02:37;;;;;;;942.17;864.47;;;22.10;65.70;;;;;;4892315;29;20527;-77
2022/08/08 09:05:06;;;;;;;1015.28;887.95;;;21.70;65.10;;;;;;4894188;29;20040;-78
2022/08/08 09:07:34;;;;;;;618.72;582.53;;;21.80;68.30;;;;;;4893372;29;20067;-84
2022/08/08 09:10:00;;;;;;;601.28;566.30;;;22.10;61.80;;;;;;4894286;29;20417;-78
2022/08/08 09:12:27;;;;;;;437.48;417.42;;;22.10;60.60;;;;;;4877331;29;20243;-77
2022/08/08 09:14:57;;;;;;;579.90;541.33;;;22.20;58.00;;;;;;4893027;29;20471;-78
2022/08/08 09:17:26;;;;;;;755.45;709.40;;;22.20;59.30;;;;;;4892408;29;20033;-77
2022/08/08 09:19:55;;;;;;;811.30;757.88;;;22.50;60.60;;;;;;4893723;29;20032;-78
2022/08/08 09:22:21;;;;;;;788.50;737.10;;;22.70;59.40;;;;;;4892118;29;20593;-77
2022/08/08 09:24:51;;;;;;;817.22;755.97;;;22.60;58.60;;;;;;4892039;29;20040;-79
2022/08/08 09:27:18;;;;;;;877.40;808.63;;;22.50;56.80;;;;;;4892491;29;20040;-81
2022/08/08 09:30:02;;;;;;;584.83;552.08;;;22.80;60.90;;;;;;4893201;29;20104;-80
2022/08/08 09:32:30;;;;;;;853.03;792.35;;;23.10;54.90;;;;;;4892572;29;20051;-80
2022/08/08 09:34:59;;;;;;;552.25;521.85;;;23.10;54.00;;;;;;4890574;29;20029;-80
2022/08/08 09:37:28;;;;;;;740.58;694.47;;;23.00;52.60;;;;;;4890733;29;20037;-82
2022/08/08 09:40:03;;;;;;;551.15;523.83;;;23.20;54.20;;;;;;4888266;29;20285;-82
2022/08/08 09:42:38;;;;;;;626.40;592.72;;;23.30;52.50;;;;;;4890802;29;20172;-82
2022/08/08 09:45:05;;;;;;;756.53;705.67;;;23.30;52.90;;;;;;4896822;29;20096;-82
2022/08/08 09:47:33;;;;;;;543.80;516.40;;;23.40;52.80;;;;;;4895532;29;20060;-81
2022/08/08 09:50:03;;;;;;;657.25;616.28;;;23.70;49.80;;;;;;4876127;29;20040;-82
2022/08/08 09:52:31;;;;;;;706.90;664.65;;;23.60;51.50;;;;;;4891218;29;20151;-81
2022/08/08 09:54:57;;;;;;;890.80;813.58;;;23.80;49.60;;;;;;4891626;29;20043;-81
2022/08/08 09:57:38;;;;;;;513.78;487.70;;;23.70;50.30;;;;;;4888291;29;20037;-81
2022/08/08 10:00:09;;;;;;;584.85;553.05;;;23.70;47.30;;;;;;4889559;29;20116;-81
2022/08/08 10:02:41;;;;;;;553.45;524.67;;;23.60;49.60;;;;;;4889126;29;20035;-78
2022/08/08 10:05:26;;;;;;;669.95;631.17;;;23.80;50.90;;;;;;4903892;29;20060;-79
2022/08/08 10:07:52;;;;;;;716.95;630.72;;;23.80;48.10;;;;;;4893810;29;20507;-82
2022/08/08 10:10:35;;;;;;;536.25;506.40;;;24.40;50.50;;;;;;4896944;29;20044;-82
2022/08/08 10:13:21;;;;;;;591.28;555.25;;;24.20;46.50;;;;;;4893779;29;20112;-80
2022/08/08 10:15:49;;;;;;;490.58;464.17;;;24.00;46.20;;;;;;4890650;29;20041;-82
2022/08/08 10:18:26;;;;;;;431.25;411.10;;;24.00;46.30;;;;;;4882920;29;20033;-82
2022/08/08 10:20:54;;;;;;;386.77;370.10;;;24.40;46.70;;;;;;4886600;29;20055;-82
2022/08/08 10:23:34;;;;;;;405.58;387.15;;;24.40;42.80;;;;;;4891767;29;20028;-81
2022/08/08 10:26:01;;;;;;;407.50;388.98;;;24.40;43.80;;;;;;4891377;29;20396;-80
2022/08/08 10:28:30;;;;;;;461.35;440.80;;;24.40;43.70;;;;;;4888250;29;20045;-82
2022/08/08 10:30:59;;;;;;;513.45;488.98;;;24.80;44.70;;;;;;4891654;29;20052;-81
2022/08/08 10:33:35;;;;;;;446.27;421.13;;;25.00;43.90;;;;;;4889431;29;20033;-82
2022/08/08 10:36:03;;;;;;;544.33;517.03;;;24.70;42.00;;;;;;4892569;29;20724;-79
2022/08/08 10:38:31;;;;;;;498.85;476.80;;;24.70;40.90;;;;;;4890380;29;20063;-79
2022/08/08 10:41:02;;;;;;;465.33;442.42;;;24.50;41.50;;;;;;4888240;29;20037;-78
2022/08/08 10:43:40;;;;;;;485.45;462.80;;;24.70;42.50;;;;;;4891673;29;20104;-78
2022/08/08 10:46:25;;;;;;;632.28;584.88;;;24.70;41.30;;;;;;4886667;29;20144;-79
2022/08/08 10:48:53;;;;;;;505.17;481.58;;;24.80;40.50;;;;;;4893419;29;20037;-77
2022/08/08 10:51:19;;;;;;;470.30;445.33;;;25.20;40.10;;;;;;4892091;29;20064;-78
2022/08/08 10:53:51;;;;;;;333.48;319.00;;;24.80;37.70;;;;;;4891931;29;20788;-79
2022/08/08 10:56:17;;;;;;;514.92;490.17;;;25.30;36.40;;;;;;4892607;29;20037;-82
2022/08/08 10:58:44;;;;;;;398.33;379.27;;;25.50;39.30;;;;;;4875179;29;20037;-82
2022/08/08 11:01:10;;;;;;;263.25;251.40;;;25.70;36.80;;;;;;4891575;29;20028;-82
2022/08/08 11:03:41;;;;;;;417.92;397.77;;;26.10;36.00;;;;;;4888845;29;20039;-81
2022/08/08 11:06:07;;;;;;;266.67;253.73;;;26.20;38.30;;;;;;4888026;29;20030;-80
2022/08/08 11:08:35;;;;;;;260.27;249.63;;;26.20;35.00;;;;;;4870773;29;20060;-81
2022/08/08 11:11:08;;;;;;;261.95;251.18;;;26.30;37.10;;;;;;4890285;29;20083;-81
2022/08/08 11:13:54;;;;;;;223.73;214.48;;;27.30;38.00;;;;;;4888674;29;20130;-82
2022/08/08 11:16:22;;;;;;;107.57;103.35;;;27.30;35.60;;;;;;4887196;29;20043;-81
2022/08/08 11:18:50;;;;;;;138.07;132.68;;;27.30;34.10;;;;;;4901002;29;20033;-82
2022/08/08 11:21:20;;;;;;;188.07;180.57;;;27.90;33.00;;;;;;4890551;29;20033;-81
2022/08/08 11:23:46;;;;;;;253.98;243.40;;;27.70;32.30;;;;;;4890011;29;20063;-80
2022/08/08 11:26:19;;;;;;;230.23;220.70;;;27.60;33.50;;;;;;4889597;29;20051;-80
2022/08/08 11:28:45;;;;;;;273.50;261.73;;;27.30;33.20;;;;;;4891809;29;20028;-80
2022/08/08 11:31:14;;;;;;;285.85;273.98;;;27.40;31.90;;;;;;4873526;29;22060;-82
2022/08/08 11:33:46;;;;;;;314.50;300.33;;;27.30;34.20;;;;;;4890493;29;20025;-79
2022/08/08 11:36:13;;;;;;;209.43;200.35;;;27.60;33.30;;;;;;4888993;29;20060;-82
2022/08/08 11:38:50;;;;;;;170.52;163.52;;;27.70;33.20;;;;;;4891308;29;20028;-78
2022/08/08 11:41:16;;;;;;;233.65;223.25;;;28.00;31.10;;;;;;4886123;29;20314;-87
2022/08/08 11:43:44;;;;;;;368.00;351.75;;;28.20;34.10;;;;;;4890056;29;20029;-80
2022/08/08 11:46:10;;;;;;;370.42;353.35;;;29.10;32.60;;;;;;4894947;29;20044;-82
2022/08/08 11:48:37;;;;;;;301.33;289.08;;;28.20;29.10;;;;;;4913695;29;20039;-78
2022/08/08 11:51:03;;;;;;;266.30;255.05;;;28.10;30.00;;;;;;4909859;29;20488;-77
2022/08/08 11:53:30;;;;;;;377.48;359.55;;;28.20;29.60;;;;;;4907845;29;20044;-78
2022/08/08 11:55:56;;;;;;;301.45;289.40;;;28.50;29.50;;;;;;4909758;29;20462;-77
2022/08/08 11:58:32;;;;;;;330.00;317.08;;;29.00;29.40;;;;;;4894457;29;20495;-79
2022/08/08 12:00:58;;;;;;;366.17;348.50;;;28.80;28.20;;;;;;4908691;29;20044;-77
2022/08/08 12:03:32;;;;;;;369.48;353.77;;;28.30;29.10;;;;;;4908915;29;20121;-80
2022/08/08 12:05:59;;;;;;;383.58;365.80;;;28.30;30.50;;;;;;4915195;29;20031;-79
2022/08/08 12:08:36;;;;;;;359.02;344.92;;;28.30;28.70;;;;;;4893706;29;20091;-80
2022/08/08 12:11:13;;;;;;;314.92;302.80;;;29.70;29.10;;;;;;4910197;29;20107;-77
2022/08/08 12:13:39;;;;;;;335.08;321.48;;;29.80;28.50;;;;;;4905891;29;20036;-77
2022/08/08 12:16:06;;;;;;;357.17;342.70;;;29.10;26.90;;;;;;4911801;29;20024;-76
2022/08/08 12:18:50;;;;;;;323.00;310.30;;;29.20;28.10;;;;;;4892886;29;20407;-76
2022/08/08 12:21:21;;;;;;;316.48;304.10;;;30.50;28.90;;;;;;4908981;29;20035;-76
2022/08/08 12:23:47;;;;;;;169.25;161.88;;;30.70;28.40;;;;;;4899359;29;20036;-77
2022/08/08 12:26:19;;;;;;;390.55;374.50;;;29.80;26.60;;;;;;4889202;29;20092;-77
2022/08/08 12:28:56;;;;;;;356.80;341.83;;;29.20;30.00;;;;;;4910650;29;20060;-79
2022/08/08 12:31:35;;;;;;;321.88;308.83;;;29.30;29.30;;;;;;4905031;29;20706;-77
2022/08/08 12:34:01;;;;;;;348.90;334.42;;;29.60;27.70;;;;;;4913729;29;20040;-77
2022/08/08 12:36:42;;;;;;;152.15;145.48;;;30.10;28.50;;;;;;4908939;29;20088;-77